Terminal Aerodrome Forecast
Issued by NWS Cleveland, OH

Home | Current Version | Previous Version | Graphics & Text | Print | Product List | Glossary On
Versions: 1 2 3 4 5 6 7 8 9 10 11 12 13 14 15 16 17 18 19 20 21 22 23 24
000
FTUS41 KCLE 250500
TAFMFD
TAF
KMFD 250535Z 2506/2606 08006KT P6SM SCT120 BKN250
     FM250800 12012KT P6SM VCSH SCT035 OVC060
     FM251000 15011KT 6SM -RA BR OVC025
     FM251100 16012G18KT 5SM -RA BR OVC025 WS015/19045KT
     FM251300 18015G25KT 2SM -SHRA BR OVC010
     FM251500 21018G30KT P6SM VCSH OVC025
     FM251900 25014G20KT P6SM SCT045
     FM260300 21005KT P6SM SCT100 BKN250=

USA.gov is the U.S. government's official web portal to all federal, state and local government web resources and services.